Time;durP1;ratioP1;P1;durP2;ratioP2;P2;SDS_P1;SDS_P2;PMS_P1;PMS_P2;Temp;Humidity;BMP_temperature;BMP_pressure;BME280_temperature;BME280_humidity;BME280_pressure;Samples;Min_cycle;Max_cycle;Signal;HPM_P1;HPM_P2
2021/10/21 00:01:02;;;;;;;84.37;48.38;;;;;;;6.73;70.56;94433.38;1596861;87;21033;-66
2021/10/21 00:03:28;;;;;;;84.67;44.95;;;;;;;6.76;70.41;94421.59;1618792;88;21744;-66
2021/10/21 00:05:55;;;;;;;73.70;39.88;;;;;;;6.79;70.26;94415.25;1602300;87;21098;-66
2021/10/21 00:08:22;;;;;;;77.72;42.17;;;;;;;6.79;69.99;94411.16;1602169;87;21752;-66
2021/10/21 00:10:50;;;;;;;98.17;49.08;;;;;;;6.71;70.04;94416.03;1611249;88;21024;-66
2021/10/21 00:13:19;;;;;;;84.80;48.55;;;;;;;6.64;70.40;94412.71;1586620;87;21117;-66
2021/10/21 00:15:45;;;;;;;79.50;43.75;;;;;;;6.63;71.09;94418.01;1603990;87;21092;-66
2021/10/21 00:18:13;;;;;;;86.22;43.98;;;;;;;6.73;70.79;94414.25;1606391;87;21125;-66
2021/10/21 00:20:39;;;;;;;68.35;39.40;;;;;;;6.73;70.73;94406.80;1616479;88;21140;-66
2021/10/21 00:23:06;;;;;;;70.65;37.83;;;;;;;6.80;70.56;94408.00;1585445;88;21020;-65
2021/10/21 00:25:33;;;;;;;69.27;35.25;;;;;;;6.88;70.16;94404.48;1595465;88;21090;-66
2021/10/21 00:28:00;;;;;;;58.42;31.40;;;;;;;6.93;69.86;94401.99;1619112;86;21080;-65
2021/10/21 00:30:27;;;;;;;70.57;37.15;;;;;;;6.94;69.66;94392.59;1613632;87;21141;-65
2021/10/21 00:32:53;;;;;;;69.85;34.40;;;;;;;6.98;69.51;94392.47;1614001;86;21129;-65
2021/10/21 00:35:20;;;;;;;57.08;33.13;;;;;;;6.97;69.63;94381.37;1588518;88;21023;-65
2021/10/21 00:37:47;;;;;;;51.55;28.25;;;;;;;7.03;69.57;94379.66;1620982;86;21212;-65
2021/10/21 00:40:13;;;;;;;42.27;24.35;;;;;;;7.08;69.08;94373.65;1603484;86;21040;-66
2021/10/21 00:42:40;;;;;;;35.03;20.17;;;;;;;7.10;68.75;94358.32;1613497;88;21719;-65
2021/10/21 00:45:09;;;;;;;41.02;23.98;;;;;;;7.12;68.55;94358.68;1609063;87;21205;-66
2021/10/21 00:47:35;;;;;;;41.23;21.45;;;;;;;7.10;68.52;94363.20;1624362;86;21505;-67
2021/10/21 00:50:02;;;;;;;41.15;20.08;;;;;;;7.10;68.54;94351.48;1627486;87;21065;-66
2021/10/21 00:52:29;;;;;;;47.50;23.35;;;;;;;7.14;68.33;94347.45;1624579;88;21517;-66
2021/10/21 00:54:56;;;;;;;32.83;17.07;;;;;;;7.15;68.26;94344.87;1619007;88;21033;-66
2021/10/21 00:57:22;;;;;;;26.07;14.00;;;;;;;7.15;68.25;94346.25;1621008;88;21120;-66
2021/10/21 00:59:51;;;;;;;18.82;12.10;;;;;;;7.17;68.19;94343.09;1623037;88;21565;-66
2021/10/21 01:02:18;;;;;;;47.93;26.15;;;;;;;7.15;68.25;94335.31;1625170;87;21532;-65
2021/10/21 01:04:44;;;;;;;42.85;22.55;;;;;;;7.22;68.30;94341.96;1628178;88;21707;-66
2021/10/21 01:07:11;;;;;;;38.45;19.65;;;;;;;7.24;68.28;94333.30;1611738;87;21006;-66
2021/10/21 01:09:38;;;;;;;29.35;16.67;;;;;;;7.23;68.22;94331.18;1591812;88;21132;-66
2021/10/21 01:12:05;;;;;;;42.93;21.75;;;;;;;7.30;68.29;94309.69;1617086;87;21193;-66
2021/10/21 01:14:32;;;;;;;38.63;19.32;;;;;;;7.42;67.82;94319.27;1610328;86;21527;-65
2021/10/21 01:16:59;;;;;;;31.27;16.10;;;;;;;7.50;67.52;94320.58;1607248;87;21204;-65
2021/10/21 01:19:25;;;;;;;23.12;12.30;;;;;;;7.53;67.07;94315.59;1601977;88;20994;-66
2021/10/21 01:21:55;;;;;;;32.58;16.20;;;;;;;7.47;66.96;94310.51;1618231;87;21173;-66
2021/10/21 01:24:23;;;;;;;26.20;14.40;;;;;;;7.47;66.84;94311.88;1610353;87;21437;-66
2021/10/21 01:26:52;;;;;;;24.70;12.95;;;;;;;7.52;66.71;94311.94;1606789;87;22346;-66
2021/10/21 01:29:22;;;;;;;27.15;14.53;;;;;;;7.58;66.53;94302.75;1613599;87;21086;-66
2021/10/21 01:31:49;;;;;;;17.10;11.28;;;;;;;7.63;66.43;94291.24;1608547;87;21039;-66
2021/10/21 01:34:16;;;;;;;19.80;10.45;;;;;;;7.67;65.99;94286.41;1607045;87;21164;-66
2021/10/21 01:36:44;;;;;;;18.77;9.40;;;;;;;7.68;65.66;94283.84;1592141;88;21846;-67
2021/10/21 01:39:11;;;;;;;29.37;18.90;;;;;;;7.71;65.49;94287.06;1615593;88;21130;-65
2021/10/21 01:41:38;;;;;;;28.40;15.72;;;;;;;7.75;65.19;94291.84;1665681;84;21469;-66
2021/10/21 01:44:06;;;;;;;53.70;30.85;;;;;;;7.76;65.24;94287.90;1643988;85;21018;-65
2021/10/21 01:46:33;;;;;;;61.88;34.83;;;;;;;7.77;65.56;94285.91;1660132;85;21126;-65
2021/10/21 01:49:00;;;;;;;82.30;45.30;;;;;;;7.80;65.66;94273.48;1667537;85;21489;-66
2021/10/21 01:51:27;;;;;;;59.70;33.25;;;;;;;7.83;65.48;94263.02;1670335;85;21100;-66
2021/10/21 01:53:53;;;;;;;41.63;24.37;;;;;;;7.85;65.17;94266.08;1659913;85;21542;-67
2021/10/21 01:56:20;;;;;;;48.48;27.87;;;;;;;7.91;64.87;94270.41;1624638;87;21026;-66
2021/10/21 01:58:47;;;;;;;34.90;21.17;;;;;;;8.01;64.61;94261.83;1615996;87;21916;-65
2021/10/21 02:01:14;;;;;;;34.08;18.62;;;;;;;8.13;64.35;94261.04;1627674;85;21057;-67
2021/10/21 02:03:40;;;;;;;44.35;22.82;;;;;;;8.21;63.99;94243.17;1630667;87;21082;-66
2021/10/21 02:06:07;;;;;;;51.08;27.75;;;;;;;8.23;63.61;94241.37;1630983;87;21065;-65
2021/10/21 02:08:34;;;;;;;49.63;26.93;;;;;;;8.19;64.34;94248.33;1585805;87;20973;-66
2021/10/21 02:11:01;;;;;;;39.78;21.93;;;;;;;8.12;64.65;94245.81;1624490;87;21145;-66
2021/10/21 02:13:28;;;;;;;36.33;20.72;;;;;;;8.09;64.65;94238.45;1631097;87;21572;-66
2021/10/21 02:15:55;;;;;;;37.42;21.30;;;;;;;8.07;64.58;94238.14;1586822;89;21530;-66
2021/10/21 02:18:24;;;;;;;29.10;18.00;;;;;;;8.09;64.55;94254.14;1615354;88;20964;-67
2021/10/21 02:20:50;;;;;;;25.82;14.85;;;;;;;8.14;64.34;94235.77;1604402;88;21602;-66
2021/10/21 02:23:17;;;;;;;32.55;17.75;;;;;;;8.14;64.02;94239.28;1599708;87;21804;-66
2021/10/21 02:25:44;;;;;;;31.93;17.10;;;;;;;8.21;63.55;94239.06;1589301;89;20985;-66
2021/10/21 02:28:11;;;;;;;29.63;16.97;;;;;;;8.21;63.44;94229.47;1600348;88;21052;-67
2021/10/21 02:30:38;;;;;;;17.80;12.25;;;;;;;8.22;63.28;94232.98;1597272;87;21080;-66
2021/10/21 02:33:04;;;;;;;18.12;11.00;;;;;;;8.22;63.03;94217.30;1602936;87;21052;-66
2021/10/21 02:35:31;;;;;;;29.27;16.97;;;;;;;8.20;62.75;94226.57;1600903;88;21673;-65
2021/10/21 02:37:58;;;;;;;25.17;14.98;;;;;;;8.31;62.87;94217.39;1601981;88;21092;-67
2021/10/21 02:40:25;;;;;;;33.50;19.50;;;;;;;8.35;63.44;94215.28;1609324;87;21003;-66
2021/10/21 02:42:53;;;;;;;25.08;15.53;;;;;;;8.29;63.95;94214.30;1660811;84;21077;-67
2021/10/21 02:45:21;;;;;;;45.12;22.48;;;;;;;8.22;64.04;94203.60;1668867;85;21022;-66
2021/10/21 02:47:48;;;;;;;55.12;26.90;;;;;;;8.25;64.00;94202.70;1668108;85;21204;-67
2021/10/21 02:50:15;;;;;;;29.55;16.25;;;;;;;8.27;63.96;94201.66;1628332;86;21430;-67
2021/10/21 02:52:43;;;;;;;17.98;10.78;;;;;;;8.34;63.56;94193.20;1667903;85;21481;-67
2021/10/21 02:55:10;;;;;;;15.05;9.28;;;;;;;8.42;62.96;94200.56;1628460;87;21522;-67
2021/10/21 02:57:37;;;;;;;17.30;14.23;;;;;;;8.50;62.31;94193.02;1626122;87;21566;-66
2021/10/21 03:00:09;;;;;;;40.98;19.20;;;;;;;8.61;61.88;94191.25;1619832;86;21917;-66
2021/10/21 03:02:37;;;;;;;39.83;19.73;;;;;;;8.69;62.06;94182.31;1617291;87;21548;-66
2021/10/21 03:05:05;;;;;;;36.63;20.62;;;;;;;8.75;61.67;94178.36;1602048;87;21093;-66
2021/10/21 03:07:32;;;;;;;38.63;20.97;;;;;;;8.81;61.47;94173.84;1627239;86;21019;-66
2021/10/21 03:09:59;;;;;;;24.70;14.43;;;;;;;8.89;61.00;94176.62;1630134;86;21394;-67
2021/10/21 03:12:26;;;;;;;22.40;10.80;;;;;;;8.97;60.87;94162.03;1620629;87;21175;-67
2021/10/21 03:14:53;;;;;;;33.30;18.48;;;;;;;9.03;60.75;94169.84;1625325;86;21015;-66
2021/10/21 03:17:21;;;;;;;32.55;19.45;;;;;;;9.03;60.64;94166.48;1642985;85;21078;-66
2021/10/21 03:19:48;;;;;;;39.40;23.77;;;;;;;9.03;60.85;94164.36;1665377;84;21223;-66
2021/10/21 03:22:15;;;;;;;30.90;19.50;;;;;;;9.06;60.98;94153.85;1672690;85;21009;-66
2021/10/21 03:24:42;;;;;;;52.53;28.10;;;;;;;9.09;60.79;94148.83;1672092;84;21147;-66
2021/10/21 03:27:09;;;;;;;66.17;35.03;;;;;;;9.16;60.51;94151.28;1669083;84;21012;-66
2021/10/21 03:29:36;;;;;;;69.92;36.53;;;;;;;9.10;60.49;94144.24;1671922;85;21093;-66
2021/10/21 03:32:05;;;;;;;66.75;34.45;;;;;;;9.01;60.83;94146.19;1669825;85;42931;-67
2021/10/21 03:34:33;;;;;;;57.10;31.50;;;;;;;9.01;60.89;94140.70;1663210;84;20951;-66
2021/10/21 03:36:59;;;;;;;72.10;38.83;;;;;;;9.01;60.81;94131.87;1667639;85;21802;-66
2021/10/21 03:39:27;;;;;;;69.82;38.25;;;;;;;8.98;60.69;94141.61;1661115;85;21121;-66
2021/10/21 03:41:54;;;;;;;63.63;35.58;;;;;;;8.88;60.91;94127.72;1672477;84;21010;-66
2021/10/21 03:44:20;;;;;;;54.13;30.77;;;;;;;8.78;61.33;94128.88;1663550;85;21036;-66
2021/10/21 03:46:48;;;;;;;43.95;25.85;;;;;;;8.68;61.53;94125.95;1667453;84;21065;-66
2021/10/21 03:49:14;;;;;;;42.17;27.40;;;;;;;8.64;61.59;94114.33;1667591;85;21224;-67
2021/10/21 03:51:41;;;;;;;44.38;26.02;;;;;;;8.65;61.69;94120.59;1650198;85;21140;-67
2021/10/21 03:54:12;;;;;;;43.20;26.73;;;;;;;8.61;62.03;94111.74;1667447;84;21129;-66
2021/10/21 03:56:36;;;;;;;52.17;31.17;;;;;;;8.65;62.16;94117.23;1663765;85;20983;-65
2021/10/21 03:59:03;;;;;;;63.42;37.05;;;;;;;8.76;62.16;94112.11;1614836;87;21181;-66
2021/10/21 04:01:30;;;;;;;53.50;33.70;;;;;;;8.75;62.29;94107.84;1620057;88;21176;-66
2021/10/21 04:03:57;;;;;;;47.58;29.48;;;;;;;8.76;62.33;94112.11;1623976;88;21034;-67
2021/10/21 04:06:23;;;;;;;43.08;27.37;;;;;;;8.71;62.40;94100.96;1624583;88;21010;-67
2021/10/21 04:08:50;;;;;;;41.48;24.35;;;;;;;8.67;62.63;94091.52;1624486;88;21070;-67
2021/10/21 04:11:17;;;;;;;53.55;29.23;;;;;;;8.67;62.67;94097.00;1624077;87;21125;-67
2021/10/21 04:13:45;;;;;;;48.92;31.30;;;;;;;8.63;63.08;94088.13;1623114;88;21173;-67
2021/10/21 04:16:12;;;;;;;62.88;32.03;;;;;;;8.59;63.05;94092.98;1664664;85;20970;-67
2021/10/21 04:18:39;;;;;;;65.42;32.80;;;;;;;8.50;63.13;94071.03;1653028;84;21025;-67
2021/10/21 04:21:06;;;;;;;52.43;34.73;;;;;;;8.44;63.37;94086.52;1665709;85;20994;-67
2021/10/21 04:23:32;;;;;;;48.65;31.80;;;;;;;8.38;62.72;94093.80;1674041;85;20978;-67
2021/10/21 04:26:00;;;;;;;39.67;26.40;;;;;;;8.51;62.53;94081.38;1676375;85;21054;-65
2021/10/21 04:28:27;;;;;;;35.98;22.65;;;;;;;8.61;62.21;94071.99;1670730;84;21110;-67
2021/10/21 04:30:54;;;;;;;77.37;40.98;;;;;;;8.75;61.88;94048.89;1658675;84;21017;-66
2021/10/21 04:33:21;;;;;;;83.17;44.48;;;;;;;8.89;61.32;94060.67;1672207;85;21072;-67
2021/10/21 04:35:47;;;;;;;36.58;23.12;;;;;;;8.98;60.57;94049.71;1669719;85;21134;-66
2021/10/21 04:38:14;;;;;;;27.65;18.65;;;;;;;8.96;61.00;94051.55;1627383;87;22948;-67
2021/10/21 04:40:41;;;;;;;36.90;23.27;;;;;;;8.95;61.14;94050.03;1619904;88;21075;-67
2021/10/21 04:43:07;;;;;;;49.53;27.30;;;;;;;9.00;61.13;94046.68;1616807;88;21065;-68
2021/10/21 04:45:34;;;;;;;40.20;27.20;;;;;;;9.03;60.37;94046.39;1615738;88;21459;-67
2021/10/21 04:48:01;;;;;;;23.73;17.65;;;;;;;9.10;60.29;94035.12;1609486;88;21165;-67
2021/10/21 04:50:28;;;;;;;18.80;12.43;;;;;;;9.21;59.67;94015.63;1588135;88;21260;-66
2021/10/21 04:52:55;;;;;;;12.00;10.08;;;;;;;9.37;58.67;94014.55;1602066;87;21140;-67
2021/10/21 04:55:23;;;;;;;8.93;7.55;;;;;;;9.63;56.54;94017.17;1629801;87;21002;-68
2021/10/21 04:57:51;;;;;;;15.38;9.65;;;;;;;9.96;55.39;94017.44;1623562;87;21022;-68
2021/10/21 05:00:19;;;;;;;13.50;8.60;;;;;;;10.27;55.36;94028.23;1642629;85;21477;-67
2021/10/21 05:02:46;;;;;;;29.60;14.65;;;;;;;10.46;55.89;94006.34;1647611;85;21159;-68
2021/10/21 05:05:13;;;;;;;34.03;18.90;;;;;;;10.54;54.63;94023.42;1665554;85;20970;-69
2021/10/21 05:07:40;;;;;;;38.78;19.00;;;;;;;10.62;54.41;94015.60;1661525;85;21588;-67
2021/10/21 05:10:09;;;;;;;39.60;21.73;;;;;;;10.63;54.24;94008.88;1626671;87;21662;-67
2021/10/21 05:12:38;;;;;;;53.35;27.50;;;;;;;10.63;54.03;94015.75;1612240;88;21644;-68
2021/10/21 05:15:06;;;;;;;47.73;25.68;;;;;;;10.69;53.96;93998.78;1617915;87;21141;-67
2021/10/21 05:17:33;;;;;;;46.92;22.87;;;;;;;10.82;53.10;94009.08;1622762;88;21043;-68
2021/10/21 05:20:03;;;;;;;55.12;28.27;;;;;;;10.97;52.67;93994.79;1592537;88;21082;-67
2021/10/21 05:22:30;;;;;;;68.42;39.83;;;;;;;11.08;52.91;94011.56;1602276;88;21090;-68
2021/10/21 05:24:57;;;;;;;50.98;28.50;;;;;;;11.10;53.20;93995.33;1619445;88;21065;-65
2021/10/21 05:27:25;;;;;;;61.65;33.95;;;;;;;11.11;53.72;93986.45;1624320;88;21213;-67
2021/10/21 05:29:51;;;;;;;49.65;30.08;;;;;;;11.12;53.30;93985.98;1603540;88;21174;-67
2021/10/21 05:32:18;;;;;;;39.18;22.15;;;;;;;11.15;53.45;93980.92;1592655;88;21102;-66
2021/10/21 05:34:45;;;;;;;42.27;25.62;;;;;;;11.18;53.20;93977.85;1588368;88;21694;-66
2021/10/21 05:37:13;;;;;;;44.38;23.70;;;;;;;11.20;53.23;93970.63;1576256;88;21085;-66
2021/10/21 05:39:40;;;;;;;40.50;20.77;;;;;;;11.29;53.17;93971.95;1582588;89;21184;-67
2021/10/21 05:42:08;;;;;;;51.75;32.85;;;;;;;11.36;53.50;93975.72;1589554;88;21140;-68
2021/10/21 05:44:36;;;;;;;52.45;29.42;;;;;;;11.46;52.93;93973.05;1600226;88;21061;-65
2021/10/21 05:47:04;;;;;;;54.70;34.75;;;;;;;11.52;53.04;93969.78;1595418;88;21770;-65
2021/10/21 05:49:31;;;;;;;36.77;24.15;;;;;;;11.58;53.34;93979.56;1638200;85;21167;-64
2021/10/21 05:51:57;;;;;;;46.28;29.60;;;;;;;11.66;52.56;93951.18;1610420;86;21119;-66
2021/10/21 05:54:24;;;;;;;66.10;36.35;;;;;;;11.75;52.48;93975.88;1645777;84;21089;-67
2021/10/21 05:56:51;;;;;;;62.25;29.87;;;;;;;11.86;52.07;93980.23;1617708;86;21065;-64
2021/10/21 05:59:18;;;;;;;33.80;17.52;;;;;;;12.03;51.65;93941.92;1639912;86;21577;-66
2021/10/21 06:01:45;;;;;;;27.55;12.93;;;;;;;12.25;50.88;93986.45;1638038;85;21065;-66
2021/10/21 06:04:12;;;;;;;29.67;16.52;;;;;;;12.50;49.50;93988.00;1614480;87;21133;-60
2021/10/21 06:06:40;;;;;;;30.80;14.93;;;;;;;12.79;49.52;93956.20;1599441;85;21048;-57
2021/10/21 06:09:06;;;;;;;21.17;13.22;;;;;;;13.02;49.30;93955.29;1611289;86;21142;-60
2021/10/21 06:11:36;;;;;;;22.98;11.05;;;;;;;13.23;48.84;93941.66;1628599;85;21821;-62
2021/10/21 06:14:05;;;;;;;14.05;9.13;;;;;;;13.44;48.60;93948.06;1639205;84;21018;-59
2021/10/21 06:16:32;;;;;;;17.25;11.53;;;;;;;13.63;48.48;93930.58;1629401;86;21148;-69
2021/10/21 06:18:59;;;;;;;16.07;11.68;;;;;;;13.83;48.35;93927.14;1633940;85;21718;-58
2021/10/21 06:21:29;;;;;;;23.73;14.18;;;;;;;14.04;47.46;93925.09;1644420;85;21071;-61
2021/10/21 06:23:56;;;;;;;25.85;12.40;;;;;;;14.23;46.46;93906.93;1616789;86;21718;-63
2021/10/21 06:26:23;;;;;;;19.15;12.65;;;;;;;14.41;46.40;93933.64;1631534;86;21091;-58
2021/10/21 06:28:51;;;;;;;12.35;9.98;;;;;;;14.56;46.66;93924.55;1633758;85;21635;-57
2021/10/21 06:31:19;;;;;;;12.88;8.60;;;;;;;14.66;46.40;93913.44;1622321;86;21101;-61
2021/10/21 06:33:48;;;;;;;10.65;6.80;;;;;;;14.76;46.10;93911.97;1639682;85;20999;-58
2021/10/21 06:36:17;;;;;;;13.70;8.70;;;;;;;14.90;44.90;93912.45;1616601;86;21768;-65
2021/10/21 06:38:44;;;;;;;15.35;10.25;;;;;;;15.06;44.39;93907.62;1617701;85;21049;-64
2021/10/21 06:41:12;;;;;;;25.50;10.82;;;;;;;15.19;44.61;93919.05;1573904;87;21126;-64
2021/10/21 06:43:38;;;;;;;13.13;7.58;;;;;;;15.30;44.04;93893.55;1612064;86;21916;-63
2021/10/21 06:46:07;;;;;;;11.85;5.45;;;;;;;15.43;41.98;93895.86;1636344;85;21083;-60
2021/10/21 06:48:33;;;;;;;20.62;6.95;;;;;;;15.67;40.85;93893.41;1642747;86;21081;-62
2021/10/21 06:51:00;;;;;;;19.40;9.30;;;;;;;15.96;39.75;93898.53;1608489;87;21633;-68
2021/10/21 06:53:27;;;;;;;20.23;5.90;;;;;;;16.16;39.75;93896.30;1631852;84;21635;-74
2021/10/21 06:55:57;;;;;;;14.68;4.95;;;;;;;16.33;38.89;93892.91;1629070;84;21053;-72
2021/10/21 06:58:25;;;;;;;54.88;5.40;;;;;;;16.48;38.57;93900.36;1638927;85;21069;-72
2021/10/21 07:00:52;;;;;;;14.13;5.30;;;;;;;16.59;37.23;93880.93;1646449;84;21056;-71
2021/10/21 07:03:20;;;;;;;16.45;4.25;;;;;;;16.75;37.41;93889.88;1639533;85;21071;-69
2021/10/21 07:05:48;;;;;;;23.38;4.58;;;;;;;16.84;37.23;93882.66;1620175;85;21751;-66
2021/10/21 07:08:15;;;;;;;18.62;5.12;;;;;;;16.92;36.41;93889.22;1639349;85;21114;-73
2021/10/21 07:10:42;;;;;;;14.30;5.10;;;;;;;17.01;36.13;93873.65;1624415;84;22421;-71
2021/10/21 07:13:11;;;;;;;15.90;6.78;;;;;;;17.09;36.51;93878.83;1638007;84;21257;-75
2021/10/21 07:15:40;;;;;;;8.88;4.37;;;;;;;17.11;36.59;93884.62;1634257;85;21065;-69
2021/10/21 07:18:08;;;;;;;20.35;4.40;;;;;;;17.12;35.72;93879.19;1615485;86;21893;-73
2021/10/21 07:20:35;;;;;;;14.95;3.92;;;;;;;17.15;36.12;93884.50;1592162;87;21591;-73
2021/10/21 07:23:02;;;;;;;13.25;3.98;;;;;;;17.14;36.08;93885.77;1615745;86;20997;-75
2021/10/21 07:25:29;;;;;;;18.73;3.62;;;;;;;17.15;35.70;93885.12;1610550;87;21492;-77
2021/10/21 07:27:56;;;;;;;7.72;4.00;;;;;;;17.18;35.11;93892.43;1617524;86;20950;-72
2021/10/21 07:30:23;;;;;;;8.70;4.78;;;;;;;17.24;35.04;93873.73;1594091;87;21135;-67
2021/10/21 07:32:50;;;;;;;15.83;4.33;;;;;;;17.28;35.08;93874.22;1621511;87;21072;-63
2021/10/21 07:35:17;;;;;;;18.73;7.08;;;;;;;17.32;34.69;93858.76;1604086;87;21149;-60
2021/10/21 07:37:44;;;;;;;9.43;3.25;;;;;;;17.36;34.30;93867.64;1587777;88;21038;-65
2021/10/21 07:40:12;;;;;;;12.40;5.72;;;;;;;17.38;34.07;93870.66;1564815;89;21105;-69
2021/10/21 07:42:43;;;;;;;5.53;4.37;;;;;;;17.44;34.53;93878.98;1633675;84;21174;-73
2021/10/21 07:45:15;;;;;;;15.48;5.20;;;;;;;17.46;33.84;93868.11;1602416;86;21099;-71
2021/10/21 07:47:45;;;;;;;13.43;4.30;;;;;;;17.48;33.81;93850.27;1601789;86;21168;-67
2021/10/21 07:50:14;;;;;;;10.00;3.92;;;;;;;17.50;34.38;93840.77;1575592;88;21099;-75
2021/10/21 07:52:45;;;;;;;12.75;4.10;;;;;;;17.49;34.41;93853.91;1610306;86;21092;-73
2021/10/21 07:55:30;;;;;;;10.03;6.27;;;;;;;17.51;34.42;93849.23;1636246;86;21156;-68
2021/10/21 07:57:52;;;;;;;5.87;3.87;;;;;;;17.51;34.73;93856.19;1644789;84;20920;-67
2021/10/21 08:00:19;;;;;;;11.25;5.47;;;;;;;17.50;34.40;93871.37;1634799;86;21033;-61
2021/10/21 08:02:48;;;;;;;10.28;5.50;;;;;;;17.51;34.83;93872.87;1630604;84;21525;-75
2021/10/21 08:05:15;;;;;;;12.90;4.75;;;;;;;17.49;35.10;93878.20;1628003;86;21038;-70
2021/10/21 08:07:44;;;;;;;18.20;4.72;;;;;;;17.47;35.00;93864.05;1627539;86;21147;-70
2021/10/21 08:10:15;;;;;;;5.75;3.92;;;;;;;17.48;35.27;93865.56;1635292;85;21069;-71
2021/10/21 08:12:42;;;;;;;6.90;4.00;;;;;;;17.45;35.07;93866.59;1620183;87;21839;-66
2021/10/21 08:15:10;;;;;;;9.93;4.70;;;;;;;17.43;35.47;93876.09;1593971;87;21228;-60
2021/10/21 08:17:42;;;;;;;13.28;7.33;;;;;;;17.41;35.77;93872.41;1624037;86;21096;-66
2021/10/21 08:20:14;;;;;;;11.43;6.22;;;;;;;17.39;36.33;93883.92;1611098;87;21146;-74
2021/10/21 08:22:46;;;;;;;10.65;6.30;;;;;;;17.35;36.47;93893.16;1635004;85;21020;-73
2021/10/21 08:25:16;;;;;;;8.03;5.72;;;;;;;17.30;36.46;93896.70;1642036;85;21040;-75
2021/10/21 08:27:45;;;;;;;10.40;5.60;;;;;;;17.26;36.84;93874.72;1598434;87;21141;-77
2021/10/21 08:30:13;;;;;;;9.00;6.45;;;;;;;17.24;37.05;93882.81;1592508;88;21107;-72
2021/10/21 08:32:41;;;;;;;7.05;5.15;;;;;;;17.21;37.26;93886.61;1593471;87;21242;-73
2021/10/21 08:35:14;;;;;;;4.72;4.03;;;;;;;17.18;37.34;93888.27;1595401;87;21049;-73
2021/10/21 08:37:38;;;;;;;8.30;4.50;;;;;;;17.15;37.58;93874.77;1588557;87;21144;-75
2021/10/21 08:40:07;;;;;;;11.57;5.20;;;;;;;17.11;38.00;93882.59;1586006;88;21175;-77
2021/10/21 08:42:35;;;;;;;7.47;4.20;;;;;;;17.06;38.47;93882.63;1611529;87;21579;-73
2021/10/21 08:45:02;;;;;;;9.13;5.20;;;;;;;17.01;38.64;93888.94;1609917;86;21190;-73
2021/10/21 08:47:29;;;;;;;8.65;5.80;;;;;;;16.98;39.34;93890.73;1596077;87;21588;-73
2021/10/21 08:49:56;;;;;;;7.40;5.40;;;;;;;16.95;39.90;93897.92;1600302;87;21070;-73
2021/10/21 08:52:24;;;;;;;6.35;4.80;;;;;;;16.92;40.23;93869.77;1606776;87;21065;-71
2021/10/21 08:54:52;;;;;;;23.62;5.67;;;;;;;16.89;40.48;93869.41;1608703;86;21179;-75
2021/10/21 08:57:19;;;;;;;9.55;4.55;;;;;;;16.87;40.64;93885.83;1607442;87;21166;-72
2021/10/21 08:59:47;;;;;;;8.23;4.67;;;;;;;16.84;41.21;93883.42;1579926;86;21006;-70
2021/10/21 09:02:24;;;;;;;6.28;5.12;;;;;;;16.82;41.53;93890.73;1614404;87;21464;-71
2021/10/21 09:10:11;;;;;;;6.72;4.67;;;;;;;16.79;42.20;93898.70;1589854;88;21192;-67
2021/10/21 09:12:43;;;;;;;6.47;4.33;;;;;;;16.76;42.42;93896.30;1596993;88;21180;-71
2021/10/21 09:15:17;;;;;;;51.75;7.50;;;;;;;16.75;42.87;93899.60;1597368;88;21170;-75
2021/10/21 09:17:46;;;;;;;7.97;5.40;;;;;;;16.71;43.58;93893.55;1601615;88;21015;-71
2021/10/21 09:20:39;;;;;;;8.08;4.85;;;;;;;16.67;43.78;93897.97;1603903;88;21185;-63
2021/10/21 09:23:12;;;;;;;7.72;4.67;;;;;;;16.67;44.38;93893.03;1605830;88;21163;-71
2021/10/21 09:25:40;;;;;;;8.63;4.47;;;;;;;16.64;44.34;93888.48;1576857;88;22192;-73
2021/10/21 09:28:25;;;;;;;10.45;4.33;;;;;;;16.64;44.67;93885.71;1576961;88;21126;-70
2021/10/21 09:30:57;;;;;;;6.78;4.37;;;;;;;16.64;44.80;93892.66;1588966;88;21120;-73
2021/10/21 09:33:26;;;;;;;5.03;3.90;;;;;;;16.65;44.68;93880.28;1635672;84;20961;-72
2021/10/21 09:36:00;;;;;;;6.00;4.90;;;;;;;16.66;44.74;93883.19;1629666;86;21240;-73
2021/10/21 09:38:32;;;;;;;4.20;3.80;;;;;;;16.68;45.13;93894.55;1636824;85;21187;-63
2021/10/21 09:41:18;;;;;;;5.85;3.37;;;;;;;16.68;45.02;93882.81;1641266;84;21130;-62
2021/10/21 09:43:49;;;;;;;14.45;7.80;;;;;;;16.69;44.90;93891.27;1621248;85;21140;-63
2021/10/21 09:46:42;;;;;;;8.48;5.45;;;;;;;16.71;45.01;93883.19;1636220;85;21033;-66
2021/10/21 09:49:28;;;;;;;10.72;5.47;;;;;;;16.72;44.96;93899.23;1653326;85;21136;-63
2021/10/21 09:51:52;;;;;;;44.95;34.00;;;;;;;16.73;44.98;93866.77;1615074;85;21124;-68
2021/10/21 09:54:20;;;;;;;9.70;7.53;;;;;;;16.72;45.20;93873.59;1630240;85;21163;-63
2021/10/21 09:57:06;;;;;;;11.63;6.40;;;;;;;16.73;45.09;93888.24;1627934;86;21149;-61
2021/10/21 09:59:37;;;;;;;4.47;3.33;;;;;;;16.76;44.85;93869.17;1635939;85;21142;-62
2021/10/21 10:02:20;;;;;;;18.00;6.55;;;;;;;16.83;45.26;93900.59;1634712;85;22275;-62
2021/10/21 10:04:54;;;;;;;5.00;4.50;;;;;;;16.89;44.69;93877.73;1626162;85;21129;-65
2021/10/21 10:07:24;;;;;;;7.80;5.03;;;;;;;16.95;44.82;93861.16;1624597;85;21116;-63
2021/10/21 10:09:59;;;;;;;10.60;5.05;;;;;;;16.99;44.47;93853.95;1641043;85;21164;-64
2021/10/21 10:12:31;;;;;;;4.60;4.12;;;;;;;17.04;44.34;93865.68;1608877;86;21469;-63
2021/10/21 10:14:59;;;;;;;19.32;4.75;;;;;;;17.12;44.76;93852.78;1643701;84;21155;-62
2021/10/21 10:17:29;;;;;;;9.68;3.85;;;;;;;17.19;44.54;93845.30;1632838;85;21205;-65
2021/10/21 10:19:57;;;;;;;8.63;5.42;;;;;;;17.22;44.71;93833.92;1596335;87;21142;-63
2021/10/21 10:22:32;;;;;;;12.37;4.70;;;;;;;17.34;44.16;93865.23;1622598;87;21018;-62
2021/10/21 10:24:59;;;;;;;5.70;4.17;;;;;;;17.56;42.67;93831.14;1611994;87;21183;-62
2021/10/21 10:27:28;;;;;;;11.55;3.67;;;;;;;17.75;42.59;93824.31;1617301;87;21177;-62
2021/10/21 10:30:01;;;;;;;15.35;4.72;;;;;;;17.88;42.47;93813.36;1568189;88;21637;-65
2021/10/21 10:32:45;;;;;;;17.70;5.90;;;;;;;17.96;41.90;93828.99;1592802;87;21109;-61
2021/10/21 10:35:13;;;;;;;5.92;3.30;;;;;;;18.13;41.90;93791.28;1568338;88;21043;-64
2021/10/21 10:37:43;;;;;;;6.28;3.37;;;;;;;18.50;40.98;93803.39;1590377;86;21008;-63
2021/10/21 10:40:14;;;;;;;48.13;5.83;;;;;;;18.98;39.12;93793.01;1620046;85;21722;-62
2021/10/21 10:42:54;;;;;;;85.32;8.85;;;;;;;19.55;38.09;93805.13;1623324;85;21084;-63
2021/10/21 10:45:23;;;;;;;27.13;4.03;;;;;;;20.07;37.56;93809.63;1621243;85;21068;-63
2021/10/21 10:47:57;;;;;;;29.63;4.75;;;;;;;20.50;36.38;93805.36;1574383;85;21255;-60
2021/10/21 10:50:30;;;;;;;18.60;7.00;;;;;;;20.86;34.15;93779.20;1642217;86;21529;-59
2021/10/21 10:53:04;;;;;;;11.95;3.15;;;;;;;21.12;34.92;93786.96;1620967;85;21092;-62
2021/10/21 10:55:50;;;;;;;49.17;6.17;;;;;;;21.63;34.28;93771.44;1636327;85;21088;-63
2021/10/21 10:58:26;;;;;;;37.83;5.12;;;;;;;22.23;33.08;93777.05;1639824;85;21060;-59
2021/10/21 11:00:58;;;;;;;32.08;3.92;;;;;;;22.54;32.74;93774.66;1636324;84;21013;-59
2021/10/21 11:03:46;;;;;;;40.65;4.78;;;;;;;22.60;32.14;93777.30;1630723;86;21569;-62
2021/10/21 11:06:17;;;;;;;50.33;6.10;;;;;;;22.55;31.93;93798.59;1634348;84;21141;-59
2021/10/21 11:09:07;;;;;;;27.30;4.42;;;;;;;22.50;31.68;93773.50;1605092;87;21064;-66
2021/10/21 11:11:50;;;;;;;34.78;3.90;;;;;;;22.72;31.76;93777.13;1636593;86;21140;-64
2021/10/21 11:14:21;;;;;;;;;;;;;;;22.99;31.54;93771.45;1618085;86;21099;-67
2021/10/21 11:16:53;;;;;;;34.33;4.67;;;;;;;23.20;30.93;93766.56;1581102;87;20779;-65
2021/10/21 11:19:45;;;;;;;47.10;5.03;;;;;;;23.39;30.73;93756.55;1599757;87;21153;-67
2021/10/21 11:22:36;;;;;;;19.57;3.85;;;;;;;23.48;30.44;93737.03;1595074;87;21198;-65
2021/10/21 11:25:07;;;;;;;71.65;5.65;;;;;;;23.71;30.25;93744.25;1582020;88;21250;-63
2021/10/21 11:27:36;;;;;;;25.05;3.72;;;;;;;23.81;29.11;93750.85;1588788;89;21051;-61
2021/10/21 11:30:09;;;;;;;12.28;2.65;;;;;;;23.70;28.38;93838.25;1601933;87;21468;-58
2021/10/21 11:32:39;;;;;;;17.30;3.30;;;;;;;23.66;29.85;93733.17;1588316;88;21614;-61
2021/10/21 11:35:10;;;;;;;61.08;6.17;;;;;;;23.75;29.28;93716.55;1582668;87;22315;-63
2021/10/21 11:37:43;;;;;;;19.20;3.50;;;;;;;23.86;28.81;93726.72;1589509;88;21159;-63
2021/10/21 11:40:23;;;;;;;8.18;2.65;;;;;;;24.01;29.32;93723.31;1585146;88;21531;-65